KMDW/MDW METAR and TAF weather

Enter ICAO airport designator
Station Type Date Time Source
KMDW METAR 2019/04/20 18:53 UTC NOAA

KMDW 201853Z 01019G27KT 10SM FEW150 15/M13 A2981 RMK AO2 PK WND 02032/1803 SLP095 T01501128


Station Type Date Time Source
KMDW Decoded METAR 2019/04/20 18:53 UTC NOAA

CHICAGO MIDWAY AIRPORT, IL, United States (KMDW) 41-47N 087-45W 188M
Apr 20, 2019 - 02:53 PM EDT / 2019.04.20 1853 UTC
Wind: from the N (010 degrees) at 22 MPH (19 KT) gusting to 31 MPH (27 KT):0
Visibility: 10 mile(s):0
Sky conditions: mostly clear
Temperature: 59.0 F (15.0 C)
Dew Point: 9.0 F (-12.8 C)
Relative Humidity: 13%
Pressure (altimeter): 29.81 in. Hg (1009 hPa)
ob: KMDW 201853Z 01019G27KT 10SM FEW150 15/M13 A2981 RMK AO2 PK WND 02032/1803 SLP095 T01501128
cycle: 19

Station Type Date Time Source
KMDW TAF 2019/04/20 18:24 UTC NOAA

TAF KMDW 201723Z 2018/2124 02019G27KT P6SM SKC
FM202100 01014G20KT P6SM SKC
FM210100 03005KT P6SM SKC
FM210700 20003KT P6SM FEW250
FM211400 19010KT P6SM FEW200

Example: see airport list